Time;durP1;ratioP1;P1;durP2;ratioP2;P2;SDS_P1;SDS_P2;PMS_P1;PMS_P2;Temp;Humidity;BMP_temperature;BMP_pressure;BME280_temperature;BME280_humidity;BME280_pressure;Samples;Min_cycle;Max_cycle;Signal;HPM_P1;HPM_P2
2023/07/30 00:00:34;;;;;;;11.32;4.32;;;;;;;21.87;98.82;100455.19;5112162;28;20027;-82
2023/07/30 00:02:59;;;;;;;9.63;4.20;;;;;;;21.75;99.17;100440.34;5111434;28;20023;-84
2023/07/30 00:05:25;;;;;;;13.05;4.70;;;;;;;21.72;99.47;100430.66;5112025;28;20031;-82
2023/07/30 00:07:50;;;;;;;8.18;4.28;;;;;;;21.89;98.88;100453.97;5110959;28;20368;-81
2023/07/30 00:10:16;;;;;;;31.77;6.47;;;;;;;21.73;99.38;100437.00;5112050;28;20032;-81
2023/07/30 00:12:42;;;;;;;11.85;4.50;;;;;;;21.70;99.29;100433.63;5094922;28;20027;-81
2023/07/30 00:15:08;;;;;;;14.23;4.45;;;;;;;21.54;99.46;100401.09;5113135;28;20866;-82
2023/07/30 00:17:33;;;;;;;8.00;4.03;;;;;;;21.71;99.84;100418.88;5113268;28;20069;-82
2023/07/30 00:19:59;;;;;;;13.40;4.90;;;;;;;21.56;99.18;100388.03;5112993;28;20526;-83
2023/07/30 00:22:24;;;;;;;11.38;4.18;;;;;;;21.83;99.07;100427.38;5111890;28;20592;-82
2023/07/30 00:24:50;;;;;;;13.82;4.55;;;;;;;21.66;99.26;100404.94;5116206;28;20172;-83
2023/07/30 00:27:16;;;;;;;8.05;4.47;;;;;;;21.56;99.31;100388.03;5119504;28;20399;-82
2023/07/30 00:29:41;;;;;;;19.55;4.68;;;;;;;21.78;98.10;100407.97;5117362;28;20031;-82
2023/07/30 00:32:07;;;;;;;13.48;4.72;;;;;;;21.75;97.80;100404.78;5116216;28;20047;-82
2023/07/30 00:34:32;;;;;;;11.48;4.18;;;;;;;21.82;98.37;100433.03;5115814;28;20028;-81
2023/07/30 00:36:58;;;;;;;10.30;5.72;;;;;;;21.65;98.97;100408.72;5111476;28;20023;-82
2023/07/30 00:39:24;;;;;;;24.92;4.65;;;;;;;21.69;98.84;100409.16;5111770;28;20031;-83
2023/07/30 00:41:50;;;;;;;22.30;6.10;;;;;;;21.72;99.35;100416.97;5111639;28;20024;-83
2023/07/30 00:44:16;;;;;;;14.00;4.72;;;;;;;21.84;98.61;100429.03;5093996;28;20024;-82
2023/07/30 00:46:41;;;;;;;7.15;3.90;;;;;;;21.80;98.46;100418.72;5111861;28;20087;-85
2023/07/30 00:49:07;;;;;;;16.23;4.20;;;;;;;21.78;98.25;100429.00;5111509;28;20023;-81
2023/07/30 00:51:33;;;;;;;16.42;5.28;;;;;;;21.86;98.70;100432.44;5111060;28;20027;-82
2023/07/30 00:54:00;;;;;;;15.00;4.40;;;;;;;21.82;99.07;100436.63;5110616;28;20487;-81
2023/07/30 00:56:26;;;;;;;9.77;3.97;;;;;;;21.80;99.21;100429.66;5115105;28;20031;-83
2023/07/30 00:58:53;;;;;;;20.38;4.88;;;;;;;21.65;98.69;100407.88;5116336;28;20031;-81
2023/07/30 01:01:19;;;;;;;18.17;6.20;;;;;;;21.43;99.02;100379.78;5114051;28;20156;-83
2023/07/30 01:03:44;;;;;;;14.88;4.82;;;;;;;21.68;98.40;100407.47;5086585;28;20122;-82
2023/07/30 01:06:10;;;;;;;14.20;5.35;;;;;;;21.78;98.60;100434.47;5087109;28;20329;-81
2023/07/30 01:08:35;;;;;;;13.65;4.55;;;;;;;21.69;98.66;100418.22;5070009;28;20518;-82
2023/07/30 01:11:04;;;;;;;25.27;4.38;;;;;;;21.75;98.09;100426.66;5087040;28;20031;-80
2023/07/30 01:13:32;;;;;;;19.02;4.43;;;;;;;21.58;98.71;100401.53;5087658;28;20542;-83
2023/07/30 01:15:57;;;;;;;8.43;4.82;;;;;;;21.71;98.19;100407.91;5087732;28;20131;-82
2023/07/30 01:18:23;;;;;;;23.30;5.80;;;;;;;21.77;97.81;100413.66;5089054;28;20039;-80
2023/07/30 01:20:53;;;;;;;21.20;5.32;;;;;;;21.75;97.42;100412.97;5082010;28;20178;-81
2023/07/30 01:23:18;;;;;;;36.20;6.40;;;;;;;21.70;97.86;100425.41;5101032;28;20056;-81
2023/07/30 01:25:45;;;;;;;26.63;5.32;;;;;;;21.63;98.05;100416.31;5092105;28;20031;-80
2023/07/30 01:28:16;;;;;;;21.45;5.63;;;;;;;21.60;98.47;100408.50;5091179;28;20456;-81
2023/07/30 01:30:43;;;;;;;13.23;4.37;;;;;;;21.69;98.76;100423.72;5091126;28;20036;-80
2023/07/30 01:33:11;;;;;;;10.60;4.38;;;;;;;21.59;98.54;100397.72;5090817;28;20050;-79
2023/07/30 01:35:37;;;;;;;18.98;5.18;;;;;;;21.60;98.66;100402.16;5040106;28;20040;-84
2023/07/30 01:38:05;;;;;;;17.13;4.88;;;;;;;21.59;98.80;100401.31;5091151;28;20040;-81
2023/07/30 01:40:32;;;;;;;15.80;4.10;;;;;;;21.74;98.76;100427.75;5096133;28;20119;-84
2023/07/30 01:42:57;;;;;;;15.63;5.40;;;;;;;21.66;99.01;100415.91;5113770;28;20030;-82
2023/07/30 01:45:23;;;;;;;14.02;4.00;;;;;;;21.57;98.90;100392.47;5114196;28;20105;-81
2023/07/30 01:47:48;;;;;;;29.30;5.45;;;;;;;21.66;98.39;100395.88;5113430;28;20032;-81
2023/07/30 01:50:14;;;;;;;20.80;4.85;;;;;;;21.37;98.03;100355.94;5113671;28;20080;-80
2023/07/30 01:52:39;;;;;;;5.53;4.57;;;;;;;21.67;98.11;100417.59;5113791;28;20023;-81
2023/07/30 01:55:05;;;;;;;15.15;4.43;;;;;;;21.50;98.34;100380.63;5113679;28;20031;-81
2023/07/30 01:57:31;;;;;;;14.52;4.57;;;;;;;21.54;98.35;100386.56;5113187;28;20023;-82
2023/07/30 01:59:56;;;;;;;17.92;5.00;;;;;;;21.73;98.41;100417.81;5113769;28;20031;-82
2023/07/30 02:02:22;;;;;;;6.32;3.95;;;;;;;21.64;97.94;100412.53;5113144;28;20028;-80
2023/07/30 02:04:47;;;;;;;9.35;4.32;;;;;;;21.65;98.19;100430.63;5113372;28;20059;-80
2023/07/30 02:07:13;;;;;;;20.15;4.50;;;;;;;21.31;98.67;100364.97;5114137;28;20051;-80
2023/07/30 02:09:38;;;;;;;23.17;5.43;;;;;;;21.23;98.83;100370.56;5114742;28;20395;-80
2023/07/30 02:12:04;;;;;;;16.23;5.18;;;;;;;21.59;99.34;100420.47;5114088;28;20079;-81
2023/07/30 02:14:29;;;;;;;13.13;4.40;;;;;;;21.50;99.71;100393.47;5114647;28;20116;-80
2023/07/30 02:16:55;;;;;;;15.70;4.15;;;;;;;21.23;98.79;100364.25;5128725;28;20020;-81
2023/07/30 02:19:20;;;;;;;8.80;3.80;;;;;;;21.55;98.21;100400.06;5128358;28;20036;-84
2023/07/30 02:21:46;;;;;;;11.10;4.63;;;;;;;21.52;97.67;100411.41;5115408;28;20038;-80
2023/07/30 02:24:11;;;;;;;12.60;5.40;;;;;;;21.40;97.95;100393.84;5113924;28;20059;-81
2023/07/30 02:26:38;;;;;;;9.57;4.40;;;;;;;21.39;97.97;100392.16;5112871;28;20023;-81
2023/07/30 02:29:04;;;;;;;13.45;4.22;;;;;;;21.28;98.02;100372.72;5113425;28;20430;-82
2023/07/30 02:31:30;;;;;;;23.55;4.97;;;;;;;21.30;97.49;100376.94;5112805;28;20016;-82
2023/07/30 02:33:56;;;;;;;16.05;4.47;;;;;;;21.47;98.15;100411.13;5112076;28;20023;-82
2023/07/30 02:36:21;;;;;;;7.78;4.55;;;;;;;21.21;97.86;100364.47;5112450;28;20032;-81
2023/07/30 02:38:47;;;;;;;24.45;5.88;;;;;;;21.11;97.45;100350.28;5113360;28;20063;-82
2023/07/30 02:41:12;;;;;;;27.05;5.32;;;;;;;21.15;97.37;100362.53;5114026;28;20022;-83
2023/07/30 02:43:38;;;;;;;19.20;4.57;;;;;;;21.51;97.60;100438.94;5113610;28;20051;-81
2023/07/30 02:46:03;;;;;;;24.23;4.72;;;;;;;20.97;98.17;100351.22;5113460;28;20038;-82
2023/07/30 02:48:29;;;;;;;18.42;5.07;;;;;;;21.36;98.16;100417.19;5095609;28;20027;-81
2023/07/30 02:50:54;;;;;;;20.23;4.70;;;;;;;21.37;98.13;100420.75;5095456;28;20102;-81
2023/07/30 02:53:19;;;;;;;16.25;4.38;;;;;;;21.22;98.43;100411.81;5113208;28;20030;-81
2023/07/30 02:55:45;;;;;;;24.02;4.53;;;;;;;20.97;98.49;100375.81;5113639;28;20051;-80
2023/07/30 02:58:11;;;;;;;13.85;4.82;;;;;;;21.25;99.27;100420.47;5113424;28;20478;-82
2023/07/30 03:00:36;;;;;;;30.25;4.88;;;;;;;21.36;99.04;100439.06;5113685;28;20073;-81
2023/07/30 03:03:03;;;;;;;32.00;4.68;;;;;;;21.17;98.90;100404.19;5095206;28;20023;-80
2023/07/30 03:05:28;;;;;;;11.18;4.22;;;;;;;21.19;98.98;100406.75;5113916;28;20502;-82
2023/07/30 03:07:54;;;;;;;33.45;6.53;;;;;;;20.91;98.97;100358.31;5095708;28;20028;-80
2023/07/30 03:10:19;;;;;;;32.03;4.05;;;;;;;21.35;98.90;100439.25;5114666;28;20020;-85
2023/07/30 03:12:45;;;;;;;26.40;5.38;;;;;;;21.06;98.80;100385.56;5120667;28;20049;-81
2023/07/30 03:15:10;;;;;;;13.10;4.93;;;;;;;21.17;99.64;100415.13;5118178;28;20031;-82
2023/07/30 03:17:36;;;;;;;22.30;7.18;;;;;;;21.31;100.00;100432.50;5112430;28;20047;-82
2023/07/30 03:20:01;;;;;;;19.13;5.32;;;;;;;21.30;99.21;100441.75;5112520;28;20030;-81
2023/07/30 03:22:27;;;;;;;23.92;5.00;;;;;;;20.98;99.08;100389.28;5112881;28;20057;-81
2023/07/30 03:24:52;;;;;;;21.35;4.93;;;;;;;21.16;98.78;100407.97;5111896;28;20412;-81
2023/07/30 03:27:18;;;;;;;23.30;6.32;;;;;;;21.14;98.85;100399.97;5111997;28;20023;-82
2023/07/30 03:29:43;;;;;;;14.73;5.20;;;;;;;21.22;99.18;100409.09;5112625;28;20024;-81
2023/07/30 03:32:09;;;;;;;19.42;5.65;;;;;;;21.37;98.34;100437.19;5112511;28;20027;-81
2023/07/30 03:34:34;;;;;;;15.27;4.90;;;;;;;21.37;97.96;100431.72;5112229;28;20024;-86
2023/07/30 03:37:03;;;;;;;25.40;6.22;;;;;;;21.12;98.07;100393.88;5112033;28;20040;-81
2023/07/30 03:39:28;;;;;;;15.27;5.80;;;;;;;21.05;97.70;100383.88;5112942;28;20024;-82
2023/07/30 03:41:53;;;;;;;41.08;8.63;;;;;;;21.37;97.80;100448.97;5109534;28;20430;-85
2023/07/30 03:44:19;;;;;;;16.85;4.97;;;;;;;21.40;98.02;100447.72;5131884;28;20083;-83
2023/07/30 03:46:46;;;;;;;18.95;5.43;;;;;;;21.32;98.07;100418.59;5116576;28;20031;-86
2023/07/30 03:49:11;;;;;;;27.50;6.63;;;;;;;21.24;98.35;100410.56;5122655;28;20538;-83
2023/07/30 03:51:38;;;;;;;36.53;7.50;;;;;;;21.46;98.47;100425.88;5113686;28;20063;-82
2023/07/30 03:54:04;;;;;;;39.28;7.25;;;;;;;21.54;98.39;100439.41;5112781;28;20024;-83
2023/07/30 03:56:30;;;;;;;57.67;8.35;;;;;;;21.46;98.31;100428.63;5112735;28;20031;-82
2023/07/30 03:58:56;;;;;;;34.45;7.55;;;;;;;21.00;98.34;100337.13;5113411;28;20407;-83
2023/07/30 04:01:21;;;;;;;45.83;9.43;;;;;;;21.35;98.29;100399.06;5113870;28;20551;-83
2023/07/30 04:03:46;;;;;;;83.28;12.80;;;;;;;21.36;98.46;100392.56;5113264;28;20042;-82
2023/07/30 04:06:12;;;;;;;73.93;10.82;;;;;;;21.40;98.45;100391.13;5113741;28;20111;-82
2023/07/30 04:08:38;;;;;;;54.67;9.18;;;;;;;21.29;98.60;100364.28;5121852;28;20019;-84
2023/07/30 04:11:03;;;;;;;49.65;9.45;;;;;;;21.84;98.53;100448.22;5120072;28;20058;-84
2023/07/30 04:13:29;;;;;;;41.53;8.23;;;;;;;21.67;98.44;100409.38;5112884;28;20050;-83
2023/07/30 04:15:54;;;;;;;27.83;8.10;;;;;;;21.84;98.53;100425.47;5111869;28;20387;-84
2023/07/30 04:18:19;;;;;;;20.95;7.15;;;;;;;21.78;99.03;100407.09;5093732;28;20031;-87
2023/07/30 04:20:45;;;;;;;32.67;7.43;;;;;;;21.97;99.15;100431.03;5093229;28;20032;-83
2023/07/30 04:23:10;;;;;;;59.13;9.10;;;;;;;21.89;98.65;100403.84;5111798;28;20090;-86
2023/07/30 04:25:36;;;;;;;35.28;7.05;;;;;;;22.19;98.30;100435.38;5093590;28;20032;-83
2023/07/30 04:28:01;;;;;;;32.03;6.05;;;;;;;22.35;97.21;100454.19;5093890;28;20491;-83
2023/07/30 04:30:27;;;;;;;42.33;7.10;;;;;;;22.07;95.04;100371.25;5112604;28;20426;-84
2023/07/30 04:32:52;;;;;;;44.03;7.15;;;;;;;22.42;94.60;100422.16;5095032;28;20421;-87
2023/07/30 04:35:18;;;;;;;59.10;8.40;;;;;;;22.60;94.80;100447.09;5112655;28;20041;-84
2023/07/30 04:37:43;;;;;;;30.45;7.15;;;;;;;22.49;94.69;100411.22;5114768;28;20032;-85
2023/07/30 04:40:09;;;;;;;25.00;5.90;;;;;;;22.58;94.40;100432.75;5115692;28;20418;-84
2023/07/30 04:42:35;;;;;;;43.70;6.88;;;;;;;22.74;92.95;100437.88;5117018;28;20112;-87
2023/07/30 04:45:02;;;;;;;12.70;5.07;;;;;;;22.63;90.56;100407.44;5115416;28;20435;-86
2023/07/30 04:47:27;;;;;;;36.92;8.27;;;;;;;22.91;89.27;100429.25;5115426;28;20032;-86
2023/07/30 04:49:53;;;;;;;32.22;7.55;;;;;;;23.04;89.24;100448.47;5112265;28;20035;-87
2023/07/30 04:52:21;;;;;;;63.03;9.15;;;;;;;22.94;87.93;100409.63;5112641;28;20397;-86
2023/07/30 04:54:47;;;;;;;19.90;4.25;;;;;;;23.12;85.68;100426.28;5094398;28;20023;-86
2023/07/30 04:57:12;;;;;;;9.93;3.55;;;;;;;23.24;82.09;100427.34;5095917;28;20398;-87
2023/07/30 04:59:38;;;;;;;9.95;3.25;;;;;;;23.39;79.51;100447.25;5117300;28;20032;-86
2023/07/30 05:02:03;;;;;;;4.72;2.83;;;;;;;23.39;78.49;100436.25;5119495;28;20172;-87
2023/07/30 05:04:29;;;;;;;7.50;4.05;;;;;;;23.24;78.77;100406.25;5110021;28;20036;-87
2023/07/30 05:06:54;;;;;;;31.48;3.78;;;;;;;23.63;78.47;100456.72;5107813;28;20027;-87
2023/07/30 05:09:20;;;;;;;28.75;5.32;;;;;;;23.60;78.16;100443.41;5116495;28;20080;-87
2023/07/30 05:11:45;;;;;;;36.35;6.20;;;;;;;23.57;76.33;100439.19;5117672;28;20358;-87
2023/07/30 05:14:11;;;;;;;5.15;2.67;;;;;;;23.81;75.91;100470.63;5101256;28;20388;-87
2023/07/30 05:16:39;;;;;;;33.85;5.93;;;;;;;23.72;75.96;100450.78;5117850;28;20080;-86
2023/07/30 05:19:05;;;;;;;21.58;5.00;;;;;;;23.63;76.10;100427.34;5117137;28;20034;-87
2023/07/30 05:21:38;;;;;;;12.18;3.88;;;;;;;23.94;77.70;100472.50;5117270;28;20495;-87
2023/07/30 05:24:23;;;;;;;;;;;;;;;;;;;;;
2023/07/30 05:27:02;;;;;;;8.90;2.85;;;;;;;23.90;76.04;100463.84;5118543;28;20035;-88
2023/07/30 05:29:27;;;;;;;11.50;3.42;;;;;;;23.91;75.77;100456.44;5117860;28;20035;-89
2023/07/30 05:31:53;;;;;;;6.82;3.13;;;;;;;23.87;75.67;100446.94;5118118;28;20053;-90
2023/07/30 05:34:19;;;;;;;8.52;4.35;;;;;;;23.73;75.93;100413.16;5118282;28;20119;-89
2023/07/30 05:36:44;;;;;;;10.48;3.65;;;;;;;23.65;76.68;100392.28;5099258;28;20058;-91
2023/07/30 05:39:10;;;;;;;4.00;3.05;;;;;;;23.87;76.33;100423.06;5126741;28;20091;-90
2023/07/30 05:41:36;;;;;;;7.82;2.38;;;;;;;23.88;74.32;100440.41;5107545;28;20037;-90
2023/07/30 05:44:01;;;;;;;6.45;2.80;;;;;;;23.61;74.09;100393.75;5124517;28;20032;-90
2023/07/30 05:46:27;;;;;;;19.08;4.45;;;;;;;23.64;73.54;100398.81;5119822;28;20038;-90
2023/07/30 05:48:52;;;;;;;13.40;3.60;;;;;;;23.91;74.34;100439.97;5099933;28;20036;-91
2023/07/30 05:51:18;;;;;;;16.75;4.18;;;;;;;23.88;75.27;100434.91;5118625;28;20027;-89
2023/07/30 05:53:44;;;;;;;28.67;3.33;;;;;;;23.78;74.30;100402.38;5121065;28;20024;-88
2023/07/30 05:56:12;;;;;;;8.25;3.05;;;;;;;23.81;74.10;100394.56;5125889;28;20023;-89
2023/07/30 05:58:38;;;;;;;4.60;2.83;;;;;;;24.22;73.83;100460.16;5108553;28;20083;-87
2023/07/30 06:01:03;;;;;;;3.28;2.20;;;;;;;24.22;73.43;100460.16;5128468;28;20115;-87
2023/07/30 06:03:29;;;;;;;16.17;2.92;;;;;;;23.83;72.91;100386.94;5106191;28;20035;-85
2023/07/30 06:05:54;;;;;;;5.97;3.67;;;;;;;24.42;74.01;100487.56;5105734;28;20019;-80
2023/07/30 06:08:19;;;;;;;23.55;3.55;;;;;;;24.39;74.55;100468.78;5114252;28;20030;-85
2023/07/30 06:10:46;;;;;;;9.73;3.08;;;;;;;24.59;74.03;100497.00;5113782;28;20034;-82
2023/07/30 06:13:12;;;;;;;5.45;2.25;;;;;;;24.31;73.26;100452.53;5113285;28;20031;-83
2023/07/30 06:15:37;;;;;;;15.77;3.45;;;;;;;24.40;73.64;100475.13;5112752;28;20027;-81
2023/07/30 06:18:03;;;;;;;12.55;2.60;;;;;;;24.41;73.25;100480.38;5112023;28;20491;-80
2023/07/30 06:20:30;;;;;;;13.40;2.30;;;;;;;24.45;73.45;100498.13;5112167;28;20026;-80
2023/07/30 06:22:55;;;;;;;19.38;4.05;;;;;;;24.28;73.09;100470.28;5112144;28;20546;-86
2023/07/30 06:25:21;;;;;;;28.90;3.60;;;;;;;24.43;73.30;100486.53;5113245;28;20107;-86
2023/07/30 06:27:46;;;;;;;9.98;1.85;;;;;;;24.38;72.46;100469.81;5113835;28;20024;-87
2023/07/30 06:30:12;;;;;;;14.90;2.88;;;;;;;24.34;72.64;100469.41;5113559;28;20027;-85
2023/07/30 06:32:37;;;;;;;10.25;2.80;;;;;;;24.56;72.57;100502.94;5112232;28;20059;-84
2023/07/30 06:35:03;;;;;;;20.45;3.83;;;;;;;24.56;72.30;100489.19;5095564;28;20055;-80
2023/07/30 06:37:29;;;;;;;5.93;2.58;;;;;;;24.56;71.69;100488.34;5093543;28;20519;-79
2023/07/30 06:39:54;;;;;;;16.45;2.97;;;;;;;24.55;71.99;100487.53;5111641;28;20091;-77
2023/07/30 06:42:19;;;;;;;14.27;2.63;;;;;;;24.45;71.45;100473.41;5110994;28;20036;-77
2023/07/30 06:44:45;;;;;;;8.98;3.08;;;;;;;24.54;70.33;100496.81;5111288;28;20031;-78
2023/07/30 06:47:10;;;;;;;9.63;2.78;;;;;;;24.52;71.02;100481.63;5111263;28;20114;-78
2023/07/30 06:49:36;;;;;;;7.65;2.05;;;;;;;24.63;71.20;100489.16;5111334;28;20020;-76
2023/07/30 06:52:02;;;;;;;11.38;3.33;;;;;;;24.62;71.47;100477.31;5111339;28;20023;-77
2023/07/30 06:54:29;;;;;;;19.67;2.83;;;;;;;24.61;71.53;100470.16;5111685;28;20110;-77
2023/07/30 06:56:54;;;;;;;20.75;3.85;;;;;;;24.31;71.85;100403.06;5060968;28;20197;-82
2023/07/30 06:59:20;;;;;;;18.60;3.20;;;;;;;24.82;71.22;100483.59;5113696;28;20032;-77
2023/07/30 07:01:45;;;;;;;9.07;4.35;;;;;;;24.81;70.66;100481.91;5110323;28;20459;-80
2023/07/30 07:04:11;;;;;;;11.35;3.20;;;;;;;24.80;70.13;100477.41;5111085;28;20020;-77
2023/07/30 07:06:36;;;;;;;7.80;2.35;;;;;;;24.86;70.46;100471.06;5111191;28;20027;-81
2023/07/30 07:09:02;;;;;;;19.60;3.05;;;;;;;24.81;69.90;100470.91;5110782;28;20032;-79
2023/07/30 07:11:28;;;;;;;7.05;2.45;;;;;;;24.84;70.37;100475.09;5111573;28;20038;-78
2023/07/30 07:13:53;;;;;;;8.77;2.70;;;;;;;24.86;70.17;100468.31;5111085;28;20394;-78
2023/07/30 07:16:19;;;;;;;9.95;2.45;;;;;;;24.81;69.63;100476.41;5110793;28;20032;-78
2023/07/30 07:18:44;;;;;;;3.55;2.15;;;;;;;24.70;69.81;100456.97;5092597;28;20463;-76
2023/07/30 07:21:10;;;;;;;25.05;3.75;;;;;;;24.70;69.73;100455.06;5111169;28;20580;-77
2023/07/30 07:23:36;;;;;;;13.45;3.13;;;;;;;24.93;69.87;100479.28;5110538;28;20047;-78
2023/07/30 07:26:01;;;;;;;5.60;2.22;;;;;;;24.82;69.16;100471.75;5110339;28;20034;-78
2023/07/30 07:28:26;;;;;;;13.85;4.00;;;;;;;24.98;69.91;100482.22;5091812;28;20111;-78
2023/07/30 07:30:52;;;;;;;6.80;2.75;;;;;;;24.98;69.54;100484.97;5110187;28;20026;-76
2023/07/30 07:33:17;;;;;;;8.00;2.47;;;;;;;25.02;69.73;100485.34;5110541;28;20475;-76
2023/07/30 07:35:43;;;;;;;10.88;2.75;;;;;;;24.51;70.30;100403.78;5110704;28;20023;-84
2023/07/30 07:38:08;;;;;;;11.45;2.47;;;;;;;24.82;70.21;100456.09;5110552;28;20042;-78
2023/07/30 07:40:40;;;;;;;27.08;9.90;;;;;;;25.03;70.65;100470.53;5110811;28;20097;-79
2023/07/30 07:43:07;;;;;;;6.30;2.38;;;;;;;25.05;70.71;100476.66;5110089;28;20489;-84
2023/07/30 07:45:32;;;;;;;5.70;2.10;;;;;;;25.14;70.82;100489.06;5109229;28;20507;-77
2023/07/30 07:47:58;;;;;;;4.38;1.92;;;;;;;25.06;69.74;100472.84;5111768;28;20024;-86
2023/07/30 07:50:23;;;;;;;9.38;2.67;;;;;;;24.98;70.29;100460.22;5112756;28;20016;-79
2023/07/30 07:52:49;;;;;;;16.08;2.88;;;;;;;25.23;70.60;100479.47;5113021;28;20027;-74
2023/07/30 07:55:14;;;;;;;9.13;2.42;;;;;;;25.26;70.25;100481.78;5112150;28;20552;-76
2023/07/30 07:57:40;;;;;;;4.43;2.33;;;;;;;25.27;70.24;100472.47;5110065;28;20050;-79
2023/07/30 08:00:07;;;;;;;5.72;2.25;;;;;;;25.29;70.25;100464.81;5110705;28;20035;-82
2023/07/30 08:02:32;;;;;;;14.73;2.65;;;;;;;25.25;70.34;100460.84;5091636;28;20031;-81
2023/07/30 08:04:57;;;;;;;10.45;2.45;;;;;;;25.42;70.30;100472.97;5110259;28;20024;-80
2023/07/30 08:07:23;;;;;;;12.63;3.17;;;;;;;25.44;69.98;100470.84;5110561;28;20023;-79
2023/07/30 08:09:48;;;;;;;16.90;3.65;;;;;;;25.48;69.67;100477.59;5110557;28;20027;-81
2023/07/30 08:12:14;;;;;;;7.68;2.47;;;;;;;25.39;70.24;100467.91;5110687;28;20102;-76
2023/07/30 08:14:39;;;;;;;9.00;3.35;;;;;;;25.48;70.87;100466.56;5110546;28;20035;-78
2023/07/30 08:17:05;;;;;;;14.38;3.67;;;;;;;25.47;69.83;100475.91;5110041;28;20858;-78
2023/07/30 08:19:30;;;;;;;9.32;2.97;;;;;;;25.50;69.29;100477.41;5109881;28;20027;-79
2023/07/30 08:21:58;;;;;;;9.15;2.75;;;;;;;25.59;70.76;100479.66;5109990;28;20055;-80
2023/07/30 08:24:24;;;;;;;9.68;3.08;;;;;;;25.64;70.13;100482.56;5109828;28;20490;-82
2023/07/30 08:26:49;;;;;;;11.88;3.45;;;;;;;25.61;70.42;100462.88;5109764;28;20039;-79
2023/07/30 08:29:15;;;;;;;17.15;8.93;;;;;;;25.63;69.89;100463.47;5110426;28;20043;-80
2023/07/30 08:31:41;;;;;;;10.98;2.55;;;;;;;25.65;70.22;100462.22;5108923;28;20024;-80
2023/07/30 08:34:07;;;;;;;16.17;3.00;;;;;;;25.63;70.92;100464.34;5109306;28;20573;-81
2023/07/30 08:36:32;;;;;;;14.00;3.45;;;;;;;25.50;70.85;100458.97;5109643;28;20045;-77
2023/07/30 08:38:58;;;;;;;10.45;2.63;;;;;;;25.62;72.48;100459.91;5110138;28;20016;-77
2023/07/30 08:41:24;;;;;;;13.57;3.53;;;;;;;25.70;71.88;100464.28;5109684;28;20126;-78
2023/07/30 08:43:51;;;;;;;93.28;10.18;;;;;;;25.57;72.26;100453.38;5109449;28;20438;-76
2023/07/30 08:46:17;;;;;;;23.20;4.40;;;;;;;25.61;72.75;100455.47;5091555;28;20037;-76
2023/07/30 08:48:42;;;;;;;13.02;2.58;;;;;;;25.68;72.06;100461.75;5111582;28;20042;-77
2023/07/30 08:51:08;;;;;;;14.80;3.38;;;;;;;25.50;73.23;100431.44;5120199;28;20049;-83
2023/07/30 08:53:34;;;;;;;14.55;2.22;;;;;;;25.67;73.43;100457.31;5110670;28;20055;-79
2023/07/30 08:56:01;;;;;;;9.63;2.28;;;;;;;25.80;73.81;100462.69;5109871;28;20031;-78
2023/07/30 08:58:28;;;;;;;12.77;3.70;;;;;;;25.85;74.21;100470.25;5109482;28;20024;-77
2023/07/30 09:00:56;;;;;;;13.32;3.13;;;;;;;25.90;75.25;100468.50;5110199;28;20031;-79
2023/07/30 09:03:24;;;;;;;3.90;2.22;;;;;;;25.85;75.18;100454.56;5109350;28;20020;-77
2023/07/30 09:05:50;;;;;;;12.35;2.50;;;;;;;25.97;75.77;100455.50;5109022;28;20441;-78
2023/07/30 09:08:17;;;;;;;13.90;2.92;;;;;;;26.06;76.10;100455.19;5109523;28;20081;-80
2023/07/30 09:10:42;;;;;;;4.82;2.83;;;;;;;26.12;75.90;100462.53;5090937;28;20035;-81
2023/07/30 09:13:07;;;;;;;22.40;4.95;;;;;;;26.08;75.97;100436.53;5109091;28;20486;-80
2023/07/30 09:15:37;;;;;;;8.40;3.10;;;;;;;26.14;76.23;100460.41;5109306;28;20521;-80
2023/07/30 09:18:03;;;;;;;4.18;2.30;;;;;;;26.13;75.67;100450.44;5109317;28;20027;-76
2023/07/30 09:20:37;;;;;;;7.28;2.75;;;;;;;26.17;76.48;100448.94;5108914;28;20043;-80
2023/07/30 09:23:02;;;;;;;8.63;2.92;;;;;;;26.15;76.08;100420.72;5109652;28;20054;-80
2023/07/30 09:25:28;;;;;;;8.82;2.60;;;;;;;26.37;75.35;100444.00;5109230;28;20027;-79
2023/07/30 09:27:53;;;;;;;10.48;3.40;;;;;;;26.41;75.07;100439.72;5109509;28;20024;-76
2023/07/30 09:30:23;;;;;;;20.83;3.20;;;;;;;26.47;74.99;100439.66;5109470;28;20533;-78
2023/07/30 09:32:55;;;;;;;4.43;2.65;;;;;;;26.51;74.60;100440.03;5109189;28;20043;-77
2023/07/30 09:35:24;;;;;;;22.13;3.38;;;;;;;26.18;75.05;100429.41;5109462;28;20020;-78
2023/07/30 09:37:50;;;;;;;5.88;3.08;;;;;;;26.12;75.84;100411.00;5110987;28;20035;-81
2023/07/30 09:40:18;;;;;;;7.30;3.13;;;;;;;26.19;76.38;100442.13;5108987;28;20027;-78
2023/07/30 09:42:48;;;;;;;6.47;2.90;;;;;;;26.24;76.49;100438.66;5110574;28;20489;-79
2023/07/30 09:45:20;;;;;;;24.95;5.10;;;;;;;26.32;76.59;100441.13;5121053;28;20020;-76
2023/07/30 09:47:49;;;;;;;10.93;2.30;;;;;;;26.31;75.42;100431.16;5119885;28;20023;-77
2023/07/30 09:50:15;;;;;;;6.03;2.67;;;;;;;26.35;76.54;100437.91;5113647;28;20582;-77
2023/07/30 09:52:42;;;;;;;11.45;3.40;;;;;;;26.44;76.21;100428.22;5112898;28;20114;-77
2023/07/30 09:55:08;;;;;;;7.15;2.35;;;;;;;26.35;75.97;100407.56;5111416;28;20036;-81
2023/07/30 09:57:34;;;;;;;9.00;2.70;;;;;;;26.65;74.41;100441.50;5112525;28;20124;-77
2023/07/30 10:00:00;;;;;;;8.82;2.22;;;;;;;26.62;74.44;100441.97;5112376;28;20031;-72
2023/07/30 10:02:31;;;;;;;9.02;2.83;;;;;;;26.57;74.99;100408.75;5111571;28;20030;-74
2023/07/30 10:04:58;;;;;;;7.28;2.45;;;;;;;26.77;74.47;100423.06;5112036;28;20034;-77
2023/07/30 10:07:25;;;;;;;4.93;2.50;;;;;;;26.70;73.93;100400.25;5112152;28;20038;-78
2023/07/30 10:09:55;;;;;;;6.25;2.50;;;;;;;26.89;73.49;100407.41;5112235;28;20023;-80
2023/07/30 10:12:34;;;;;;;7.13;2.97;;;;;;;27.08;73.70;100434.94;5093723;28;20111;-76
2023/07/30 10:15:01;;;;;;;4.88;2.40;;;;;;;27.18;73.46;100429.69;5112273;28;20016;-76
2023/07/30 10:17:28;;;;;;;5.45;2.83;;;;;;;27.30;72.50;100417.59;5112051;28;20112;-76
2023/07/30 10:19:54;;;;;;;10.32;2.78;;;;;;;27.33;71.77;100417.09;5113750;28;20103;-77
2023/07/30 10:22:23;;;;;;;11.50;3.25;;;;;;;27.23;71.17;100416.00;5112850;28;20107;-80
2023/07/30 10:24:59;;;;;;;9.93;3.30;;;;;;;27.25;72.10;100427.63;5113921;28;20051;-79
2023/07/30 10:27:36;;;;;;;8.60;3.13;;;;;;;27.38;71.39;100417.22;5115505;28;20020;-85
2023/07/30 10:30:15;;;;;;;11.35;3.30;;;;;;;27.17;71.94;100394.88;5135476;28;20317;-79
2023/07/30 10:32:55;;;;;;;6.40;2.30;;;;;;;26.94;72.03;100376.38;5136062;28;20024;-80
2023/07/30 10:35:37;;;;;;;6.50;2.30;;;;;;;26.99;72.46;100393.88;5136060;28;20042;-77
2023/07/30 10:38:14;;;;;;;6.53;2.78;;;;;;;26.98;73.99;100418.97;5095213;28;20038;-75
2023/07/30 10:40:40;;;;;;;8.80;2.50;;;;;;;26.99;74.55;100421.50;5114393;28;20048;-75
2023/07/30 10:43:17;;;;;;;8.43;2.22;;;;;;;27.19;73.42;100412.03;5114413;28;20485;-75
2023/07/30 10:45:50;;;;;;;8.57;2.38;;;;;;;27.16;72.47;100390.41;5112459;28;20043;-75
2023/07/30 10:48:16;;;;;;;4.32;2.42;;;;;;;27.30;72.66;100412.06;5112734;28;20020;-74
2023/07/30 10:50:42;;;;;;;3.47;2.00;;;;;;;27.18;71.70;100391.88;5112261;28;20024;-76
2023/07/30 10:53:08;;;;;;;15.05;2.78;;;;;;;27.28;71.18;100397.63;5111695;28;20034;-79
2023/07/30 10:55:34;;;;;;;2.58;2.05;;;;;;;27.27;71.56;100423.59;5058152;28;20036;-78
2023/07/30 10:58:00;;;;;;;5.75;2.20;;;;;;;27.14;70.62;100387.06;5111459;28;20039;-76
2023/07/30 11:00:25;;;;;;;6.30;2.05;;;;;;;27.25;71.25;100409.16;5111117;28;20020;-76
2023/07/30 11:02:54;;;;;;;7.60;2.20;;;;;;;27.36;71.84;100410.25;5111853;28;20038;-73
2023/07/30 11:05:20;;;;;;;6.60;2.53;;;;;;;27.27;72.32;100422.72;5110540;28;20099;-77
2023/07/30 11:07:52;;;;;;;8.57;2.80;;;;;;;27.26;70.89;100405.31;5110531;28;20031;-76
2023/07/30 11:10:17;;;;;;;2.40;2.17;;;;;;;27.27;71.35;100393.19;5110352;28;20073;-80
2023/07/30 11:12:43;;;;;;;6.22;2.08;;;;;;;27.29;68.31;100381.91;5111092;28;20051;-76
2023/07/30 11:15:09;;;;;;;7.80;2.10;;;;;;;27.47;68.66;100407.50;5110638;28;20023;-78
2023/07/30 11:17:35;;;;;;;5.28;2.65;;;;;;;27.52;67.94;100402.09;5092022;28;20032;-75